Time,TemperatureF,DewpointF,PressureIn,WindDirection,WindDirectionDegrees,WindSpeedMPH,WindSpeedGustMPH,Humidity,HourlyPrecipIn,Conditions,Clouds,dailyrainin,SolarRadiationWatts/m^2,SoftwareType,DateUTC
2013-07-20 00:01:00,79.0,73.4,29.01,SE,135,2.0,5.0,83,0.00,,---,0.00,0.00,VWS V14.01,2013-07-20 04:01:00,
2013-07-20 00:02:00,79.0,73.4,29.01,SE,135,3.0,3.0,83,0.00,,---,0.00,0.00,VWS V14.01,2013-07-20 04:02:00,
2013-07-20 00:07:00,79.0,73.4,29.01,South,180,5.0,6.0,83,0.00,,---,0.00,0.00,VWS V14.01,2013-07-20 04:07:00,
2013-07-20 00:12:00,79.0,73.4,29.01,SE,135,4.0,4.0,83,0.00,,---,0.00,0.00,VWS V14.01,2013-07-20 04:12:00,
2013-07-20 00:17:00,79.0,73.4,29.01,SSE,157,4.0,4.0,83,0.00,,---,0.00,0.00,VWS V14.01,2013-07-20 04:17:00,
2013-07-20 00:23:00,78.0,72.8,29.01,SW,225,0.0,5.0,84,0.00,,---,0.00,0.00,VWS V14.01,2013-07-20 04:23:00,
2013-07-20 00:28:00,79.0,73.4,29.01,South,180,0.0,4.0,83,0.00,,---,0.00,0.00,VWS V14.01,2013-07-20 04:28:00,
2013-07-20 00:33:00,78.0,72.8,29.01,ENE,67,2.0,3.0,84,0.00,,---,0.00,0.00,VWS V14.01,2013-07-20 04:33:00,
2013-07-20 00:38:00,79.0,73.8,29.02,South,180,5.0,8.0,84,0.00,,---,0.00,0.00,VWS V14.01,2013-07-20 04:38:00,
2013-07-20 00:43:00,78.0,72.8,29.02,SSW,202,0.0,4.0,84,0.00,,---,0.00,0.00,VWS V14.01,2013-07-20 04:43:00,
2013-07-20 00:48:00,78.0,72.8,29.01,South,180,2.0,4.0,84,0.00,,---,0.00,0.00,VWS V14.01,2013-07-20 04:48:00,
2013-07-20 00:53:00,78.0,72.8,29.01,ESE,112,3.0,3.0,84,0.00,,---,0.00,0.00,VWS V14.01,2013-07-20 04:53:00,
2013-07-20 00:58:00,78.0,72.4,29.01,SSE,157,6.0,6.0,83,0.00,,---,0.00,0.00,VWS V14.01,2013-07-20 04:58:00,
2013-07-20 01:03:00,78.0,72.4,29.01,NE,45,0.0,3.0,83,0.00,,---,0.00,0.00,VWS V14.01,2013-07-20 05:03:00,
2013-07-20 01:08:00,78.0,72.4,29.01,SSE,157,4.0,9.0,83,0.00,,---,0.00,0.00,VWS V14.01,2013-07-20 05:08:00,
2013-07-20 01:13:00,78.0,72.8,29.01,SSE,157,2.0,4.0,84,0.00,,---,0.00,0.00,VWS V14.01,2013-07-20 05:13:00,
2013-07-20 01:18:00,78.0,72.4,29.01,SE,135,4.0,4.0,83,0.00,,---,0.00,0.00,VWS V14.01,2013-07-20 05:18:00,
2013-07-20 01:23:00,78.0,73.1,29.01,South,180,7.0,7.0,85,0.00,,---,0.00,0.00,VWS V14.01,2013-07-20 05:23:00,
2013-07-20 01:28:00,78.0,72.8,29.01,SE,135,4.0,5.0,84,0.00,,---,0.00,0.00,VWS V14.01,2013-07-20 05:28:00,
2013-07-20 01:33:00,78.0,73.1,29.01,East,90,0.0,4.0,85,0.00,,---,0.00,0.00,VWS V14.01,2013-07-20 05:33:00,
2013-07-20 01:38:00,78.0,72.8,29.00,East,90,2.0,5.0,84,0.00,,---,0.00,0.00,VWS V14.01,2013-07-20 05:38:00,
2013-07-20 01:43:00,78.0,73.1,29.00,SE,135,3.0,3.0,85,0.00,,---,0.00,0.00,VWS V14.01,2013-07-20 05:43:00,
2013-07-20 01:48:00,78.0,73.1,29.00,South,180,5.0,5.0,85,0.00,,---,0.00,0.00,VWS V14.01,2013-07-20 05:48:00,
2013-07-20 01:53:00,77.0,72.5,29.00,ESE,112,3.0,5.0,86,0.00,,---,0.00,0.00,VWS V14.01,2013-07-20 05:53:00,
2013-07-20 01:58:00,78.0,73.1,29.00,SE,135,3.0,3.0,85,0.00,,---,0.00,0.00,VWS V14.01,2013-07-20 05:58:00,
2013-07-20 02:03:00,77.0,72.5,29.00,South,180,4.0,5.0,86,0.00,,---,0.00,0.00,VWS V14.01,2013-07-20 06:03:00,
2013-07-20 02:08:00,77.0,72.5,28.99,ESE,112,4.0,7.0,86,0.00,,---,0.00,0.00,VWS V14.01,2013-07-20 06:08:00,
2013-07-20 02:13:00,77.0,72.8,28.99,South,180,5.0,8.0,87,0.00,,---,0.00,0.00,VWS V14.01,2013-07-20 06:13:00,
2013-07-20 02:18:00,77.0,72.5,28.99,SE,135,4.0,5.0,86,0.00,,---,0.00,0.00,VWS V14.01,2013-07-20 06:18:00,
2013-07-20 02:23:00,77.0,72.8,28.99,ESE,112,4.0,6.0,87,0.00,,---,0.00,0.00,VWS V14.01,2013-07-20 06:23:00,
2013-07-20 02:28:00,77.0,72.5,28.99,SSE,157,2.0,5.0,86,0.00,,---,0.00,0.00,VWS V14.01,2013-07-20 06:28:00,
2013-07-20 02:33:00,77.0,72.8,28.99,SE,135,0.0,4.0,87,0.00,,---,0.00,0.00,VWS V14.01,2013-07-20 06:33:00,
2013-07-20 02:38:00,77.0,72.8,28.99,South,180,0.0,3.0,87,0.00,,---,0.00,0.00,VWS V14.01,2013-07-20 06:38:00,
2013-07-20 02:43:00,77.0,72.8,28.99,South,180,4.0,4.0,87,0.00,,---,0.00,0.00,VWS V14.01,2013-07-20 06:43:00,
2013-07-20 02:48:00,77.0,72.8,28.99,South,180,3.0,5.0,87,0.00,,---,0.00,0.00,VWS V14.01,2013-07-20 06:48:00,
2013-07-20 02:53:00,77.0,72.8,28.99,SE,135,3.0,4.0,87,0.00,,---,0.00,0.00,VWS V14.01,2013-07-20 06:53:00,
2013-07-20 02:58:00,77.0,72.5,28.99,WNW,292,4.0,5.0,86,0.00,,---,0.00,0.00,VWS V14.01,2013-07-20 06:58:00,
2013-07-20 03:03:00,77.0,72.8,28.99,SSW,202,1.0,5.0,87,0.00,,---,0.00,0.00,VWS V14.01,2013-07-20 07:03:00,
2013-07-20 03:08:00,77.0,72.2,28.99,South,180,0.0,0.0,85,0.00,,---,0.00,0.00,VWS V14.01,2013-07-20 07:08:00,
2013-07-20 03:13:00,77.0,72.5,28.99,ESE,112,3.0,4.0,86,0.00,,---,0.00,0.00,VWS V14.01,2013-07-20 07:13:00,
2013-07-20 03:18:00,77.0,72.2,28.99,East,90,0.0,5.0,85,0.00,,---,0.00,0.00,VWS V14.01,2013-07-20 07:18:00,
2013-07-20 03:23:00,77.0,72.8,28.99,SSE,157,0.0,5.0,87,0.00,,---,0.00,0.00,VWS V14.01,2013-07-20 07:23:00,
2013-07-20 03:28:00,77.0,72.5,28.98,NW,315,3.0,5.0,86,0.00,,---,0.00,0.00,VWS V14.01,2013-07-20 07:28:00,
2013-07-20 03:33:00,76.0,71.9,28.98,South,180,0.0,4.0,87,0.00,,---,0.00,0.00,VWS V14.01,2013-07-20 07:33:00,
2013-07-20 03:38:00,77.0,72.8,28.99,SSW,202,2.0,7.0,87,0.00,,---,0.00,0.00,VWS V14.01,2013-07-20 07:38:00,
2013-07-20 03:43:00,76.0,71.9,28.99,ESE,112,0.0,8.0,87,0.00,,---,0.00,0.00,VWS V14.01,2013-07-20 07:43:00,
2013-07-20 03:48:00,76.0,71.9,28.99,SE,135,3.0,3.0,87,0.00,,---,0.00,0.00,VWS V14.01,2013-07-20 07:48:00,
2013-07-20 03:53:00,76.0,72.2,28.99,SSW,202,2.0,4.0,88,0.00,,---,0.00,0.00,VWS V14.01,2013-07-20 07:53:00,
2013-07-20 03:58:00,76.0,71.9,28.98,SE,135,0.0,0.0,87,0.00,,---,0.00,0.00,VWS V14.01,2013-07-20 07:58:00,
2013-07-20 04:03:00,76.0,72.2,28.98,East,90,0.0,0.0,88,0.00,,---,0.00,0.00,VWS V14.01,2013-07-20 08:03:00,
2013-07-20 04:08:00,76.0,71.9,28.98,SW,225,6.0,9.0,87,0.00,,---,0.00,0.00,VWS V14.01,2013-07-20 08:08:00,
2013-07-20 04:13:00,76.0,71.9,28.98,SE,135,3.0,4.0,87,0.00,,---,0.00,0.00,VWS V14.01,2013-07-20 08:13:00,
2013-07-20 04:18:00,76.0,71.9,28.97,SE,135,1.0,4.0,87,0.00,,---,0.00,0.00,VWS V14.01,2013-07-20 08:18:00,
2013-07-20 04:23:00,76.0,72.2,28.97,South,180,3.0,6.0,88,0.00,,---,0.00,0.00,VWS V14.01,2013-07-20 08:23:00,
2013-07-20 04:28:00,76.0,71.5,28.97,South,180,3.0,4.0,86,0.00,,---,0.00,0.00,VWS V14.01,2013-07-20 08:28:00,
2013-07-20 04:33:00,76.0,71.9,28.97,SSE,157,4.0,6.0,87,0.00,,---,0.00,0.00,VWS V14.01,2013-07-20 08:33:00,
2013-07-20 04:38:00,76.0,71.5,28.97,SE,135,4.0,6.0,86,0.00,,---,0.00,0.00,VWS V14.01,2013-07-20 08:38:00,
2013-07-20 04:43:00,76.0,71.9,28.97,North,360,1.0,1.0,87,0.00,,---,0.00,0.00,VWS V14.01,2013-07-20 08:43:00,
2013-07-20 04:48:00,76.0,71.5,28.97,SSE,157,3.0,4.0,86,0.00,,---,0.00,0.00,VWS V14.01,2013-07-20 08:48:00,
2013-07-20 04:53:00,76.0,71.9,28.97,South,180,4.0,4.0,87,0.00,,---,0.00,0.00,VWS V14.01,2013-07-20 08:53:00,
2013-07-20 04:58:00,76.0,71.5,28.97,SW,225,0.0,2.0,86,0.00,,---,0.00,0.00,VWS V14.01,2013-07-20 08:58:00,
2013-07-20 05:03:00,75.0,70.5,28.97,SSE,157,1.0,4.0,86,0.00,,---,0.00,0.00,VWS V14.01,2013-07-20 09:03:00,
2013-07-20 05:08:00,76.0,71.9,28.97,SE,135,2.0,3.0,87,0.00,,---,0.00,0.00,VWS V14.01,2013-07-20 09:08:00,
2013-07-20 05:13:00,75.0,70.5,28.97,SE,135,3.0,6.0,86,0.00,,---,0.00,0.00,VWS V14.01,2013-07-20 09:13:00,
2013-07-20 05:18:00,76.0,71.9,28.97,South,180,4.0,6.0,87,0.00,,---,0.00,0.00,VWS V14.01,2013-07-20 09:18:00,
2013-07-20 05:23:00,75.0,70.9,28.97,South,180,1.0,5.0,87,0.00,,---,0.00,0.00,VWS V14.01,2013-07-20 09:23:00,
2013-07-20 05:28:00,76.0,72.2,28.97,SSW,202,2.0,6.0,88,0.00,,---,0.00,0.00,VWS V14.01,2013-07-20 09:28:00,
2013-07-20 05:33:00,75.0,71.2,28.97,South,180,3.0,5.0,88,0.00,,---,0.00,0.00,VWS V14.01,2013-07-20 09:33:00,
2013-07-20 05:38:00,76.0,72.2,28.97,East,90,0.0,4.0,88,0.00,,---,0.00,0.00,VWS V14.01,2013-07-20 09:38:00,
2013-07-20 05:43:00,75.0,71.2,28.97,SW,225,0.0,4.0,88,0.00,,---,0.00,0.00,VWS V14.01,2013-07-20 09:43:00,
2013-07-20 05:48:00,76.0,72.2,28.97,South,180,2.0,5.0,88,0.00,,---,0.00,0.00,VWS V14.01,2013-07-20 09:48:00,
2013-07-20 05:53:00,75.0,71.2,28.97,NNW,337,2.0,4.0,88,0.00,,---,0.00,0.00,VWS V14.01,2013-07-20 09:53:00,
2013-07-20 05:58:00,75.0,70.9,28.97,SSW,202,0.0,7.0,87,0.00,,---,0.00,0.00,VWS V14.01,2013-07-20 09:58:00,
2013-07-20 06:03:00,75.0,71.5,28.97,South,180,3.0,6.0,89,0.00,,---,0.00,0.00,VWS V14.01,2013-07-20 10:03:00,
2013-07-20 06:08:00,75.0,71.2,28.97,SE,135,4.0,4.0,88,0.00,,---,0.00,0.00,VWS V14.01,2013-07-20 10:08:00,
2013-07-20 06:13:00,75.0,71.5,28.97,SW,225,0.0,5.0,89,0.00,,---,0.00,0.00,VWS V14.01,2013-07-20 10:13:00,
2013-07-20 06:18:00,75.0,71.5,28.97,SE,135,3.0,4.0,89,0.00,,---,0.00,0.00,VWS V14.01,2013-07-20 10:18:00,
2013-07-20 06:23:00,75.0,71.9,28.97,SSW,202,3.0,3.0,90,0.00,,---,0.00,0.00,VWS V14.01,2013-07-20 10:23:00,
2013-07-20 06:28:00,75.0,71.5,28.98,NW,315,0.0,5.0,89,0.00,,---,0.00,0.00,VWS V14.01,2013-07-20 10:28:00,
2013-07-20 06:33:00,75.0,72.2,28.98,SW,225,4.0,7.0,91,0.00,,---,0.00,0.00,VWS V14.01,2013-07-20 10:33:00,
2013-07-20 06:38:00,75.0,71.5,28.98,SW,225,1.0,7.0,89,0.00,,---,0.00,0.00,VWS V14.01,2013-07-20 10:38:00,
2013-07-20 06:43:00,75.0,72.2,28.98,SSW,202,0.0,7.0,91,0.00,,---,0.00,0.00,VWS V14.01,2013-07-20 10:43:00,
2013-07-20 06:48:00,75.0,71.9,28.99,SSW,202,4.0,4.0,90,0.00,,---,0.00,0.00,VWS V14.01,2013-07-20 10:48:00,
2013-07-20 06:53:00,75.0,72.2,28.99,NW,315,0.0,6.0,91,0.00,,---,0.00,0.00,VWS V14.01,2013-07-20 10:53:00,
2013-07-20 06:58:00,75.0,71.9,28.99,SE,135,0.0,4.0,90,0.00,,---,0.00,0.00,VWS V14.01,2013-07-20 10:58:00,
2013-07-20 07:03:00,75.0,72.5,28.99,West,270,3.0,3.0,92,0.00,,---,0.00,0.00,VWS V14.01,2013-07-20 11:03:00,
2013-07-20 07:08:00,75.0,72.2,28.99,WSW,247,0.0,3.0,91,0.00,,---,0.00,0.00,VWS V14.01,2013-07-20 11:08:00,
2013-07-20 07:13:00,75.0,72.5,28.99,East,90,0.0,0.0,92,0.00,,---,0.00,0.00,VWS V14.01,2013-07-20 11:13:00,
2013-07-20 07:18:00,75.0,72.5,28.99,South,180,4.0,5.0,92,0.00,,---,0.00,0.00,VWS V14.01,2013-07-20 11:18:00,
2013-07-20 07:23:00,75.0,72.5,28.99,East,90,0.0,0.0,92,0.00,,---,0.00,0.00,VWS V14.01,2013-07-20 11:23:00,
2013-07-20 07:28:00,75.0,72.2,28.99,NW,315,1.0,5.0,91,0.00,,---,0.00,0.00,VWS V14.01,2013-07-20 11:28:00,
2013-07-20 07:33:00,75.0,72.5,28.99,North,360,0.0,3.0,92,0.00,,---,0.00,0.00,VWS V14.01,2013-07-20 11:33:00,
2013-07-20 07:38:00,75.0,72.2,28.99,WSW,247,2.0,4.0,91,0.00,,---,0.00,0.00,VWS V14.01,2013-07-20 11:38:00,
2013-07-20 07:43:00,75.0,72.2,28.99,South,180,3.0,3.0,91,0.00,,---,0.00,0.00,VWS V14.01,2013-07-20 11:43:00,
2013-07-20 07:48:00,75.0,72.2,28.99,SSW,202,0.0,4.0,91,0.00,,---,0.00,0.00,VWS V14.01,2013-07-20 11:48:00,
2013-07-20 07:53:00,75.0,72.2,28.99,SW,225,2.0,4.0,91,0.00,,---,0.00,0.00,VWS V14.01,2013-07-20 11:53:00,
2013-07-20 07:58:00,75.0,72.2,28.99,SE,135,0.0,0.0,91,0.00,,---,0.00,0.00,VWS V14.01,2013-07-20 11:58:00,
2013-07-20 08:03:00,75.0,72.5,28.99,South,180,0.0,5.0,92,0.00,,---,0.00,0.00,VWS V14.01,2013-07-20 12:03:00,
2013-07-20 08:08:00,76.0,73.5,28.99,WNW,292,0.0,3.0,92,0.00,,---,0.00,0.00,VWS V14.01,2013-07-20 12:08:00,
2013-07-20 08:13:00,76.0,73.2,28.99,South,180,1.0,3.0,91,0.00,,---,0.00,0.00,VWS V14.01,2013-07-20 12:13:00,
2013-07-20 08:18:00,77.0,73.5,28.99,ESE,112,1.0,5.0,89,0.00,,---,0.00,0.00,VWS V14.01,2013-07-20 12:18:00,
2013-07-20 08:23:00,77.0,73.2,28.99,South,180,3.0,6.0,88,0.00,,---,0.00,0.00,VWS V14.01,2013-07-20 12:23:00,
2013-07-20 08:28:00,78.0,73.5,28.99,South,180,3.0,4.0,86,0.00,,---,0.00,0.00,VWS V14.01,2013-07-20 12:28:00,
2013-07-20 08:33:00,78.0,73.1,28.99,East,90,0.0,7.0,85,0.00,,---,0.00,0.00,VWS V14.01,2013-07-20 12:33:00,
2013-07-20 08:38:00,79.0,72.7,28.97,WSW,247,3.0,5.0,81,0.00,,---,0.00,0.00,VWS V14.01,2013-07-20 12:38:00,
2013-07-20 08:43:00,79.0,73.4,28.97,North,360,0.0,0.0,83,0.00,,---,0.00,0.00,VWS V14.01,2013-07-20 12:43:00,
2013-07-20 08:48:00,80.0,73.3,28.97,South,180,1.0,4.0,80,0.00,,---,0.00,0.00,VWS V14.01,2013-07-20 12:48:00,
2013-07-20 08:53:00,80.0,72.9,28.97,NNE,22,0.0,3.0,79,0.00,,---,0.00,0.00,VWS V14.01,2013-07-20 12:53:00,
2013-07-20 08:58:00,80.0,72.5,28.97,North,360,0.0,3.0,78,0.00,,---,0.00,0.00,VWS V14.01,2013-07-20 12:58:00,
2013-07-20 09:03:00,80.0,73.7,28.97,South,180,2.0,4.0,81,0.00,,---,0.00,0.00,VWS V14.01,2013-07-20 13:03:00,
2013-07-20 09:08:00,80.0,73.7,28.98,SSE,157,0.0,7.0,81,0.00,,---,0.00,0.00,VWS V14.01,2013-07-20 13:08:00,
2013-07-20 09:13:00,80.0,73.3,28.98,West,270,0.0,8.0,80,0.00,,---,0.00,0.00,VWS V14.01,2013-07-20 13:13:00,
2013-07-20 09:18:00,80.0,72.9,28.99,North,360,0.0,0.0,79,0.00,,---,0.00,0.00,VWS V14.01,2013-07-20 13:18:00,
2013-07-20 09:23:00,80.0,72.9,28.99,West,270,3.0,4.0,79,0.00,,---,0.00,0.00,VWS V14.01,2013-07-20 13:23:00,
2013-07-20 09:28:00,79.0,72.3,29.00,SSE,157,0.0,2.0,80,0.00,,---,0.00,0.00,VWS V14.01,2013-07-20 13:28:00,
2013-07-20 09:33:00,79.0,73.4,29.00,SSE,157,1.0,1.0,83,0.00,,---,0.00,0.00,VWS V14.01,2013-07-20 13:33:00,
2013-07-20 09:38:00,78.0,72.4,29.01,East,90,3.0,3.0,83,0.00,,---,0.00,0.00,VWS V14.01,2013-07-20 13:38:00,
2013-07-20 09:43:00,78.0,73.1,29.01,East,90,0.0,3.0,85,0.00,,---,0.00,0.00,VWS V14.01,2013-07-20 13:43:00,
2013-07-20 09:48:00,78.0,73.1,29.02,SE,135,0.0,2.0,85,0.00,,---,0.00,0.00,VWS V14.01,2013-07-20 13:48:00,
2013-07-20 09:53:00,77.0,72.5,29.02,West,270,4.0,4.0,86,0.00,,---,0.00,0.00,VWS V14.01,2013-07-20 13:53:00,
2013-07-20 09:58:00,78.0,73.8,29.01,SSW,202,0.0,3.0,87,0.00,,---,0.00,0.00,VWS V14.01,2013-07-20 13:58:00,
2013-07-20 10:03:00,77.0,73.2,29.01,SW,225,3.0,3.0,88,0.00,,---,0.00,0.00,VWS V14.01,2013-07-20 14:03:00,
2013-07-20 10:08:00,77.0,72.8,29.03,NE,45,1.0,5.0,87,0.00,,---,0.00,0.00,VWS V14.01,2013-07-20 14:08:00,
2013-07-20 10:13:00,77.0,73.5,29.03,ESE,112,0.0,3.0,89,0.00,,---,0.00,0.00,VWS V14.01,2013-07-20 14:13:00,
2013-07-20 10:18:00,76.0,72.9,29.03,ESE,112,0.0,4.0,90,0.00,,---,0.00,0.00,VWS V14.01,2013-07-20 14:18:00,
2013-07-20 10:23:00,76.0,73.5,29.03,SE,135,1.0,1.0,92,0.00,,---,0.00,0.00,VWS V14.01,2013-07-20 14:23:00,
2013-07-20 10:28:00,75.0,72.2,29.04,West,270,0.0,7.0,91,0.02,,---,0.06,0.00,VWS V14.01,2013-07-20 14:28:00,
2013-07-20 10:33:00,72.0,67.6,29.04,SSE,157,0.0,0.0,86,0.18,,---,0.18,0.00,VWS V14.01,2013-07-20 14:33:00,
2013-07-20 10:38:00,70.0,70.0,29.03,West,270,0.0,0.0,100,0.19,,---,0.19,0.00,VWS V14.01,2013-07-20 14:38:00,
2013-07-20 10:43:00,70.0,70.0,29.03,East,90,0.0,0.0,100,0.19,,---,0.19,0.00,VWS V14.01,2013-07-20 14:43:00,
2013-07-20 10:48:00,70.0,70.0,29.03,WNW,292,0.0,0.0,100,0.19,,---,0.19,0.00,VWS V14.01,2013-07-20 14:48:00,
2013-07-20 10:53:00,70.0,70.0,29.03,WNW,292,0.0,0.0,100,0.19,,---,0.19,0.00,VWS V14.01,2013-07-20 14:53:00,
2013-07-20 10:58:00,70.0,70.0,29.04,NNE,22,0.0,0.0,100,0.19,,---,0.19,0.00,VWS V14.01,2013-07-20 14:58:00,
2013-07-20 11:03:00,70.0,70.0,29.04,NE,45,0.0,0.0,100,0.19,,---,0.19,0.00,VWS V14.01,2013-07-20 15:03:00,
2013-07-20 11:08:00,70.0,70.0,29.05,SW,225,0.0,0.0,100,0.19,,---,0.19,0.00,VWS V14.01,2013-07-20 15:08:00,
2013-07-20 11:13:00,70.0,70.0,29.05,SW,225,0.0,0.0,100,0.19,,---,0.19,0.00,VWS V14.01,2013-07-20 15:13:00,
2013-07-20 11:18:00,70.0,70.0,29.05,SE,135,0.0,0.0,100,0.19,,---,0.19,0.00,VWS V14.01,2013-07-20 15:18:00,
2013-07-20 11:23:00,70.0,70.0,29.05,SE,135,0.0,0.0,100,0.19,,---,0.19,0.00,VWS V14.01,2013-07-20 15:23:00,
2013-07-20 11:28:00,70.0,70.0,29.05,SE,135,0.0,0.0,100,0.17,,---,0.19,0.00,VWS V14.01,2013-07-20 15:28:00,
2013-07-20 11:33:00,70.0,70.0,29.05,NW,315,0.0,0.0,100,0.02,,---,0.19,0.00,VWS V14.01,2013-07-20 15:33:00,
2013-07-20 11:38:00,71.0,71.0,29.05,SE,135,0.0,0.0,100,0.01,,---,0.20,0.00,VWS V14.01,2013-07-20 15:38:00,
2013-07-20 11:43:00,70.0,70.0,29.05,SE,135,0.0,0.0,100,0.01,,---,0.20,0.00,VWS V14.01,2013-07-20 15:43:00,
2013-07-20 11:48:00,71.0,71.0,29.04,East,90,0.0,0.0,100,0.01,,---,0.20,0.00,VWS V14.01,2013-07-20 15:48:00,
2013-07-20 11:53:00,71.0,71.0,29.04,East,90,0.0,0.0,100,0.01,,---,0.20,0.00,VWS V14.01,2013-07-20 15:53:00,
2013-07-20 11:58:00,71.0,71.0,29.03,SSE,157,2.0,3.0,100,0.02,,---,0.21,0.00,VWS V14.01,2013-07-20 15:58:00,
2013-07-20 12:03:00,71.0,71.0,29.03,SW,225,0.0,0.0,100,0.02,,---,0.21,0.00,VWS V14.01,2013-07-20 16:03:00,
2013-07-20 12:08:00,71.0,71.0,29.05,ENE,67,0.0,0.0,100,0.02,,---,0.22,0.00,VWS V14.01,2013-07-20 16:08:00,
2013-07-20 12:13:00,71.0,71.0,29.05,ENE,67,0.0,0.0,100,0.03,,---,0.22,0.00,VWS V14.01,2013-07-20 16:13:00,
2013-07-20 12:18:00,71.0,71.0,29.05,ENE,67,0.0,0.0,100,0.03,,---,0.22,0.00,VWS V14.01,2013-07-20 16:18:00,
2013-07-20 12:23:00,71.0,71.0,29.05,NNE,22,0.0,0.0,100,0.04,,---,0.24,0.00,VWS V14.01,2013-07-20 16:23:00,
2013-07-20 12:28:00,71.0,71.0,29.05,NE,45,0.0,0.0,100,0.05,,---,0.24,0.00,VWS V14.01,2013-07-20 16:28:00,
2013-07-20 12:33:00,71.0,71.0,29.05,SE,135,0.0,0.0,100,0.06,,---,0.25,0.00,VWS V14.01,2013-07-20 16:33:00,
2013-07-20 12:38:00,71.0,71.0,29.05,East,90,0.0,0.0,100,0.05,,---,0.25,0.00,VWS V14.01,2013-07-20 16:38:00,
2013-07-20 12:43:00,71.0,71.0,29.05,WSW,247,0.0,0.0,100,0.05,,---,0.25,0.00,VWS V14.01,2013-07-20 16:43:00,
2013-07-20 12:48:00,71.0,71.0,29.04,NE,45,0.0,0.0,100,0.05,,---,0.25,0.00,VWS V14.01,2013-07-20 16:48:00,
2013-07-20 12:53:00,71.0,71.0,29.04,NE,45,0.0,0.0,100,0.05,,---,0.25,0.00,VWS V14.01,2013-07-20 16:53:00,
2013-07-20 12:58:00,72.0,72.0,29.04,NE,45,0.0,0.0,100,0.04,,---,0.25,0.00,VWS V14.01,2013-07-20 16:58:00,
2013-07-20 13:03:00,72.0,72.0,29.04,NE,45,0.0,0.0,100,0.04,,---,0.25,0.00,VWS V14.01,2013-07-20 17:03:00,
2013-07-20 13:08:00,73.0,73.0,29.04,West,270,0.0,0.0,100,0.04,,---,0.25,0.00,VWS V14.01,2013-07-20 17:08:00,
2013-07-20 13:13:00,72.0,72.0,29.04,West,270,0.0,0.0,100,0.03,,---,0.25,0.00,VWS V14.01,2013-07-20 17:13:00,
2013-07-20 13:18:00,73.0,73.0,29.04,North,360,0.0,0.0,100,0.03,,---,0.25,0.00,VWS V14.01,2013-07-20 17:18:00,
2013-07-20 13:23:00,72.0,72.0,29.04,South,180,0.0,0.0,100,0.02,,---,0.25,0.00,VWS V14.01,2013-07-20 17:23:00,
2013-07-20 13:28:00,72.0,72.0,29.05,South,180,0.0,0.0,100,0.01,,---,0.25,0.00,VWS V14.01,2013-07-20 17:28:00,
2013-07-20 13:33:00,72.0,72.0,29.05,NW,315,0.0,0.0,100,0.00,,---,0.25,0.00,VWS V14.01,2013-07-20 17:33:00,
2013-07-20 13:38:00,73.0,73.0,29.05,South,180,0.0,0.0,100,0.00,,---,0.25,0.00,VWS V14.01,2013-07-20 17:38:00,
2013-07-20 13:43:00,72.0,72.0,29.05,South,180,0.0,0.0,100,0.00,,---,0.25,0.00,VWS V14.01,2013-07-20 17:43:00,
2013-07-20 13:48:00,73.0,73.0,29.05,NW,315,0.0,0.0,100,0.00,,---,0.25,0.00,VWS V14.01,2013-07-20 17:48:00,
2013-07-20 13:53:00,72.0,72.0,29.05,SSW,202,0.0,0.0,100,0.00,,---,0.25,0.00,VWS V14.01,2013-07-20 17:53:00,
2013-07-20 13:58:00,72.0,72.0,29.05,South,180,0.0,0.0,100,0.00,,---,0.25,0.00,VWS V14.01,2013-07-20 17:58:00,
2013-07-20 14:03:00,72.0,72.0,29.05,South,180,0.0,0.0,100,0.00,,---,0.25,0.00,VWS V14.01,2013-07-20 18:03:00,
2013-07-20 14:08:00,72.0,72.0,29.03,South,180,0.0,0.0,100,0.00,,---,0.25,0.00,VWS V14.01,2013-07-20 18:08:00,
2013-07-20 14:13:00,72.0,72.0,29.03,NW,315,0.0,0.0,100,0.00,,---,0.25,0.00,VWS V14.01,2013-07-20 18:13:00,
2013-07-20 14:18:00,72.0,72.0,29.03,SSE,157,0.0,0.0,100,0.00,,---,0.25,0.00,VWS V14.01,2013-07-20 18:18:00,
2013-07-20 14:23:00,72.0,72.0,29.03,WSW,247,2.0,3.0,100,0.00,,---,0.25,0.00,VWS V14.01,2013-07-20 18:23:00,
2013-07-20 14:28:00,72.0,72.0,29.03,SW,225,0.0,2.0,100,0.00,,---,0.25,0.00,VWS V14.01,2013-07-20 18:28:00,
2013-07-20 14:33:00,73.0,73.0,29.03,North,360,0.0,0.0,100,0.00,,---,0.25,0.00,VWS V14.01,2013-07-20 18:33:00,
2013-07-20 14:38:00,74.0,74.0,29.03,NW,315,0.0,0.0,100,0.00,,---,0.25,0.00,VWS V14.01,2013-07-20 18:38:00,
2013-07-20 14:43:00,75.0,75.0,29.03,South,180,3.0,4.0,100,0.00,,---,0.25,0.00,VWS V14.01,2013-07-20 18:43:00,
2013-07-20 14:48:00,75.0,73.8,29.02,South,180,4.0,4.0,96,0.00,,---,0.25,0.00,VWS V14.01,2013-07-20 18:48:00,
2013-07-20 14:54:00,74.0,72.8,29.02,North,360,0.0,0.0,96,0.00,,---,0.25,0.00,VWS V14.01,2013-07-20 18:54:00,
2013-07-20 14:59:00,74.0,72.8,29.02,South,180,4.0,4.0,96,0.00,,---,0.25,0.00,VWS V14.01,2013-07-20 18:59:00,
2013-07-20 15:04:00,74.0,72.8,29.02,NE,45,0.0,0.0,96,0.00,,---,0.25,0.00,VWS V14.01,2013-07-20 19:04:00,
2013-07-20 15:09:00,74.0,72.2,29.02,SW,225,0.0,1.0,94,0.00,,---,0.25,0.00,VWS V14.01,2013-07-20 19:09:00,
2013-07-20 15:14:00,74.0,72.8,29.02,ESE,112,0.0,0.0,96,0.00,,---,0.25,0.00,VWS V14.01,2013-07-20 19:14:00,
2013-07-20 15:19:00,74.0,73.1,29.03,SSW,202,0.0,0.0,97,0.00,,---,0.25,0.00,VWS V14.01,2013-07-20 19:19:00,
2013-07-20 15:24:00,73.0,72.1,29.03,SW,225,0.0,0.0,97,0.00,,---,0.25,0.00,VWS V14.01,2013-07-20 19:24:00,
2013-07-20 15:29:00,73.0,72.1,29.03,SW,225,0.0,0.0,97,0.00,,---,0.25,0.00,VWS V14.01,2013-07-20 19:29:00,
2013-07-20 15:34:00,73.0,72.4,29.03,South,180,2.0,4.0,98,0.00,,---,0.25,0.00,VWS V14.01,2013-07-20 19:34:00,
2013-07-20 15:39:00,73.0,72.7,29.02,South,180,0.0,0.0,99,0.00,,---,0.25,0.00,VWS V14.01,2013-07-20 19:39:00,
2013-07-20 15:44:00,73.0,72.7,29.02,SW,225,0.0,0.0,99,0.00,,---,0.25,0.00,VWS V14.01,2013-07-20 19:44:00,
2013-07-20 15:50:00,73.0,72.7,29.02,SSE,157,0.0,0.0,99,0.00,,---,0.25,0.00,VWS V14.01,2013-07-20 19:50:00,
2013-07-20 15:55:00,73.0,72.4,29.02,SSW,202,5.0,6.0,98,0.00,,---,0.25,0.00,VWS V14.01,2013-07-20 19:55:00,
2013-07-20 16:00:00,73.0,72.4,29.01,SE,135,0.0,0.0,98,0.00,,---,0.25,0.00,VWS V14.01,2013-07-20 20:00:00,
2013-07-20 16:05:00,73.0,72.7,29.01,SE,135,0.0,4.0,99,0.00,,---,0.25,0.00,VWS V14.01,2013-07-20 20:05:00,
2013-07-20 16:11:00,73.0,72.7,29.01,SSW,202,0.0,0.0,99,0.00,,---,0.25,0.00,VWS V14.01,2013-07-20 20:11:00,
2013-07-20 16:16:00,73.0,72.4,29.01,ESE,112,0.0,3.0,98,0.00,,---,0.25,0.00,VWS V14.01,2013-07-20 20:16:00,
2013-07-20 16:21:00,74.0,72.2,29.01,SE,135,3.0,7.0,94,0.00,,---,0.25,0.00,VWS V14.01,2013-07-20 20:21:00,
2013-07-20 16:26:00,74.0,72.2,29.01,SSW,202,0.0,5.0,94,0.00,,---,0.25,0.00,VWS V14.01,2013-07-20 20:26:00,
2013-07-20 16:32:00,74.0,71.5,29.01,South,180,2.0,4.0,92,0.00,,---,0.25,0.00,VWS V14.01,2013-07-20 20:32:00,
2013-07-20 16:37:00,75.0,71.9,29.01,SW,225,2.0,5.0,90,0.00,,---,0.25,0.00,VWS V14.01,2013-07-20 20:37:00,
2013-07-20 16:42:00,75.0,72.5,28.99,NNW,337,0.0,0.0,92,0.00,,---,0.25,0.00,VWS V14.01,2013-07-20 20:42:00,
2013-07-20 16:47:00,75.0,72.5,28.99,South,180,0.0,0.0,92,0.00,,---,0.25,0.00,VWS V14.01,2013-07-20 20:47:00,
2013-07-20 16:52:00,75.0,72.2,29.00,SE,135,0.0,4.0,91,0.00,,---,0.25,0.00,VWS V14.01,2013-07-20 20:52:00,
2013-07-20 16:57:00,75.0,72.2,28.99,SSW,202,0.0,0.0,91,0.00,,---,0.25,0.00,VWS V14.01,2013-07-20 20:57:00,
2013-07-20 17:03:00,75.0,72.5,28.99,SSE,157,0.0,0.0,92,0.00,,---,0.25,0.00,VWS V14.01,2013-07-20 21:03:00,
2013-07-20 17:09:00,74.0,71.5,29.01,South,180,2.0,3.0,92,0.00,,---,0.25,0.00,VWS V14.01,2013-07-20 21:09:00,
2013-07-20 17:14:00,74.0,72.2,29.01,NW,315,0.0,0.0,94,0.00,,---,0.25,0.00,VWS V14.01,2013-07-20 21:14:00,
2013-07-20 17:19:00,73.0,71.5,29.01,NNE,22,0.0,0.0,95,0.00,,---,0.25,0.00,VWS V14.01,2013-07-20 21:19:00,
2013-07-20 17:25:00,73.0,71.8,29.01,SSE,157,0.0,0.0,96,0.00,,---,0.25,0.00,VWS V14.01,2013-07-20 21:25:00,
2013-07-20 17:30:00,73.0,72.4,29.01,SSE,157,0.0,0.0,98,0.00,,---,0.25,0.00,VWS V14.01,2013-07-20 21:30:00,
2013-07-20 17:35:00,72.0,71.4,29.01,SSE,157,0.0,0.0,98,0.00,,---,0.25,0.00,VWS V14.01,2013-07-20 21:35:00,
2013-07-20 17:40:00,72.0,71.7,29.01,SSE,157,0.0,0.0,99,0.00,,---,0.25,0.00,VWS V14.01,2013-07-20 21:40:00,
2013-07-20 17:45:00,72.0,72.0,29.01,SSE,157,0.0,0.0,100,0.00,,---,0.25,0.00,VWS V14.01,2013-07-20 21:45:00,
2013-07-20 17:50:00,72.0,72.0,29.02,SSE,157,0.0,0.0,100,0.00,,---,0.25,0.00,VWS V14.01,2013-07-20 21:50:00,
2013-07-20 17:55:00,72.0,72.0,29.02,SSE,157,0.0,0.0,100,0.00,,---,0.25,0.00,VWS V14.01,2013-07-20 21:55:00,
2013-07-20 18:00:00,72.0,72.0,29.02,SSE,157,0.0,0.0,100,0.00,,---,0.25,0.00,VWS V14.01,2013-07-20 22:00:00,
2013-07-20 18:05:00,71.0,71.0,29.02,SSE,157,0.0,0.0,100,0.00,,---,0.25,0.00,VWS V14.01,2013-07-20 22:05:00,
2013-07-20 18:10:00,71.0,71.0,29.03,SSE,157,0.0,0.0,100,0.00,,---,0.25,0.00,VWS V14.01,2013-07-20 22:10:00,
2013-07-20 18:15:00,71.0,71.0,29.03,SSE,157,0.0,0.0,100,0.00,,---,0.25,0.00,VWS V14.01,2013-07-20 22:15:00,
2013-07-20 18:20:00,71.0,71.0,29.02,SSE,157,0.0,0.0,100,0.00,,---,0.25,0.00,VWS V14.01,2013-07-20 22:20:00,
2013-07-20 18:25:00,71.0,71.0,29.02,SSE,157,0.0,0.0,100,0.00,,---,0.25,0.00,VWS V14.01,2013-07-20 22:25:00,
2013-07-20 18:30:00,71.0,71.0,29.02,SSE,157,0.0,0.0,100,0.00,,---,0.25,0.00,VWS V14.01,2013-07-20 22:30:00,
2013-07-20 18:35:00,71.0,71.0,29.02,SSE,157,0.0,0.0,100,0.00,,---,0.25,0.00,VWS V14.01,2013-07-20 22:35:00,
2013-07-20 18:40:00,71.0,71.0,29.02,SSE,157,0.0,0.0,100,0.00,,---,0.25,0.00,VWS V14.01,2013-07-20 22:40:00,
2013-07-20 18:45:00,71.0,71.0,29.02,SSE,157,0.0,0.0,100,0.00,,---,0.25,0.00,VWS V14.01,2013-07-20 22:45:00,
2013-07-20 18:50:00,71.0,71.0,29.02,SSE,157,0.0,0.0,100,0.00,,---,0.25,0.00,VWS V14.01,2013-07-20 22:50:00,
2013-07-20 18:55:00,71.0,71.0,29.02,SSE,157,0.0,0.0,100,0.00,,---,0.25,0.00,VWS V14.01,2013-07-20 22:55:00,
2013-07-20 19:00:00,71.0,71.0,29.02,SSE,157,0.0,0.0,100,0.00,,---,0.25,0.00,VWS V14.01,2013-07-20 23:00:00,
2013-07-20 19:05:00,71.0,71.0,29.02,SSE,157,0.0,0.0,100,0.00,,---,0.25,0.00,VWS V14.01,2013-07-20 23:05:00,
2013-07-20 19:10:00,71.0,71.0,29.03,SSE,157,0.0,0.0,100,0.00,,---,0.25,0.00,VWS V14.01,2013-07-20 23:10:00,
2013-07-20 19:15:00,71.0,71.0,29.03,SSE,157,0.0,0.0,100,0.00,,---,0.25,0.00,VWS V14.01,2013-07-20 23:15:00,
2013-07-20 19:21:00,71.0,71.0,29.03,SSE,157,0.0,0.0,100,0.00,,---,0.25,0.00,VWS V14.01,2013-07-20 23:21:00,
2013-07-20 19:26:00,71.0,71.0,29.03,SSE,157,0.0,0.0,100,0.00,,---,0.25,0.00,VWS V14.01,2013-07-20 23:26:00,
2013-07-20 19:31:00,71.0,71.0,29.03,SSE,157,0.0,0.0,100,0.00,,---,0.25,0.00,VWS V14.01,2013-07-20 23:31:00,
2013-07-20 19:36:00,71.0,71.0,29.03,SSE,157,0.0,0.0,100,0.00,,---,0.25,0.00,VWS V14.01,2013-07-20 23:36:00,
2013-07-20 19:42:00,71.0,71.0,29.03,South,180,0.0,0.0,100,0.00,,---,0.25,0.00,VWS V14.01,2013-07-20 23:42:00,
2013-07-20 19:47:00,71.0,71.0,29.03,SSE,157,0.0,3.0,100,0.00,,---,0.25,0.00,VWS V14.01,2013-07-20 23:47:00,
2013-07-20 19:52:00,71.0,71.0,29.03,SSE,157,0.0,0.0,100,0.00,,---,0.25,0.00,VWS V14.01,2013-07-20 23:52:00,
2013-07-20 19:57:00,71.0,71.0,29.03,SSE,157,0.0,0.0,100,0.00,,---,0.25,0.00,VWS V14.01,2013-07-20 23:57:00,
2013-07-20 20:02:00,71.0,71.0,29.04,SSE,157,0.0,0.0,100,0.00,,---,0.25,0.00,VWS V14.01,2013-07-21 00:02:00,
2013-07-20 20:07:00,70.0,70.0,29.04,SSE,157,0.0,0.0,100,0.00,,---,0.25,0.00,VWS V14.01,2013-07-21 00:07:00,
2013-07-20 20:12:00,70.0,70.0,29.05,SSE,157,1.0,3.0,100,0.00,,---,0.25,0.00,VWS V14.01,2013-07-21 00:12:00,
2013-07-20 20:17:00,70.0,70.0,29.05,SE,135,3.0,3.0,100,0.00,,---,0.25,0.00,VWS V14.01,2013-07-21 00:17:00,
2013-07-20 20:22:00,70.0,70.0,29.05,SE,135,0.0,4.0,100,0.00,,---,0.25,0.00,VWS V14.01,2013-07-21 00:22:00,
2013-07-20 20:27:00,70.0,70.0,29.05,SSW,202,0.0,0.0,100,0.00,,---,0.25,0.00,VWS V14.01,2013-07-21 00:27:00,
2013-07-20 20:32:00,70.0,70.0,29.06,SSE,157,0.0,0.0,100,0.00,,---,0.25,0.00,VWS V14.01,2013-07-21 00:32:00,
2013-07-20 20:37:00,70.0,70.0,29.06,SSE,157,0.0,0.0,100,0.00,,---,0.25,0.00,VWS V14.01,2013-07-21 00:37:00,
2013-07-20 20:43:00,70.0,70.0,29.05,SSE,157,0.0,0.0,100,0.00,,---,0.25,0.00,VWS V14.01,2013-07-21 00:43:00,
2013-07-20 20:48:00,70.0,70.0,29.06,SSE,157,0.0,0.0,100,0.00,,---,0.25,0.00,VWS V14.01,2013-07-21 00:48:00,
2013-07-20 20:53:00,70.0,70.0,29.06,SSE,157,0.0,0.0,100,0.00,,---,0.25,0.00,VWS V14.01,2013-07-21 00:53:00,
2013-07-20 20:58:00,70.0,70.0,29.07,NW,315,0.0,0.0,100,0.00,,---,0.25,0.00,VWS V14.01,2013-07-21 00:58:00,
2013-07-20 21:03:00,70.0,70.0,29.07,NW,315,0.0,0.0,100,0.00,,---,0.25,0.00,VWS V14.01,2013-07-21 01:03:00,
2013-07-20 21:08:00,70.0,70.0,29.07,NW,315,0.0,0.0,100,0.00,,---,0.25,0.00,VWS V14.01,2013-07-21 01:08:00,
2013-07-20 21:13:00,69.0,69.0,29.07,NW,315,0.0,0.0,100,0.00,,---,0.25,0.00,VWS V14.01,2013-07-21 01:13:00,
2013-07-20 21:18:00,69.0,69.0,29.07,NW,315,0.0,0.0,100,0.00,,---,0.25,0.00,VWS V14.01,2013-07-21 01:18:00,
2013-07-20 21:23:00,69.0,69.0,29.07,NW,315,0.0,0.0,100,0.00,,---,0.25,0.00,VWS V14.01,2013-07-21 01:23:00,
2013-07-20 21:29:00,69.0,69.0,29.07,NW,315,0.0,0.0,100,0.00,,---,0.25,0.00,VWS V14.01,2013-07-21 01:29:00,
2013-07-20 21:34:00,69.0,69.0,29.07,NW,315,0.0,0.0,100,0.00,,---,0.25,0.00,VWS V14.01,2013-07-21 01:34:00,
2013-07-20 21:39:00,69.0,69.0,29.07,NW,315,0.0,0.0,100,0.00,,---,0.25,0.00,VWS V14.01,2013-07-21 01:39:00,
2013-07-20 21:44:00,69.0,69.0,29.07,NW,315,0.0,0.0,100,0.00,,---,0.25,0.00,VWS V14.01,2013-07-21 01:44:00,
2013-07-20 21:49:00,69.0,69.0,29.08,NW,315,0.0,0.0,100,0.00,,---,0.25,0.00,VWS V14.01,2013-07-21 01:49:00,
2013-07-20 21:54:00,69.0,69.0,29.08,NW,315,0.0,0.0,100,0.00,,---,0.25,0.00,VWS V14.01,2013-07-21 01:54:00,
2013-07-20 21:59:00,69.0,69.0,29.08,NW,315,0.0,0.0,100,0.00,,---,0.25,0.00,VWS V14.01,2013-07-21 01:59:00,
2013-07-20 22:04:00,69.0,69.0,29.08,NW,315,0.0,0.0,100,0.00,,---,0.25,0.00,VWS V14.01,2013-07-21 02:04:00,
2013-07-20 22:09:00,69.0,69.0,29.08,NW,315,0.0,0.0,100,0.00,,---,0.25,0.00,VWS V14.01,2013-07-21 02:09:00,
2013-07-20 22:14:00,69.0,69.0,29.08,NW,315,0.0,0.0,100,0.00,,---,0.25,0.00,VWS V14.01,2013-07-21 02:14:00,
2013-07-20 22:19:00,69.0,69.0,29.08,NW,315,0.0,0.0,100,0.00,,---,0.25,0.00,VWS V14.01,2013-07-21 02:19:00,
2013-07-20 22:24:00,69.0,69.0,29.08,NW,315,0.0,0.0,100,0.00,,---,0.25,0.00,VWS V14.01,2013-07-21 02:24:00,
2013-07-20 22:29:00,69.0,69.0,29.08,NW,315,0.0,0.0,100,0.00,,---,0.25,0.00,VWS V14.01,2013-07-21 02:29:00,
2013-07-20 22:34:00,69.0,69.0,29.08,NW,315,0.0,0.0,100,0.00,,---,0.25,0.00,VWS V14.01,2013-07-21 02:34:00,
2013-07-20 22:40:00,69.0,69.0,29.08,SW,225,0.0,0.0,100,0.00,,---,0.25,0.00,VWS V14.01,2013-07-21 02:40:00,
2013-07-20 22:45:00,69.0,69.0,29.08,South,180,0.0,0.0,100,0.00,,---,0.25,0.00,VWS V14.01,2013-07-21 02:45:00,
2013-07-20 22:50:00,68.0,68.0,29.08,WSW,247,0.0,0.0,100,0.00,,---,0.25,0.00,VWS V14.01,2013-07-21 02:50:00,
2013-07-20 22:55:00,68.0,68.0,29.08,SSW,202,0.0,0.0,100,0.00,,---,0.25,0.00,VWS V14.01,2013-07-21 02:55:00,
2013-07-20 23:00:00,68.0,68.0,29.08,SW,225,0.0,0.0,100,0.00,,---,0.25,0.00,VWS V14.01,2013-07-21 03:00:00,
2013-07-20 23:05:00,68.0,68.0,29.08,SE,135,0.0,0.0,100,0.00,,---,0.25,0.00,VWS V14.01,2013-07-21 03:05:00,
2013-07-20 23:10:00,68.0,68.0,29.07,South,180,0.0,0.0,100,0.00,,---,0.25,0.00,VWS V14.01,2013-07-21 03:10:00,
2013-07-20 23:15:00,68.0,68.0,29.07,South,180,0.0,0.0,100,0.00,,---,0.25,0.00,VWS V14.01,2013-07-21 03:15:00,
2013-07-20 23:20:00,68.0,68.0,29.07,South,180,0.0,0.0,100,0.00,,---,0.25,0.00,VWS V14.01,2013-07-21 03:20:00,
2013-07-20 23:25:00,68.0,68.0,29.07,South,180,0.0,0.0,100,0.00,,---,0.25,0.00,VWS V14.01,2013-07-21 03:25:00,
2013-07-20 23:30:00,68.0,68.0,29.08,South,180,0.0,0.0,100,0.00,,---,0.25,0.00,VWS V14.01,2013-07-21 03:30:00,
2013-07-20 23:35:00,68.0,68.0,29.08,South,180,0.0,0.0,100,0.00,,---,0.25,0.00,VWS V14.01,2013-07-21 03:35:00,
2013-07-20 23:40:00,68.0,68.0,29.09,South,180,0.0,0.0,100,0.00,,---,0.25,0.00,VWS V14.01,2013-07-21 03:40:00,
2013-07-20 23:45:00,68.0,68.0,29.09,South,180,0.0,0.0,100,0.00,,---,0.25,0.00,VWS V14.01,2013-07-21 03:45:00,
2013-07-20 23:50:00,68.0,68.0,29.09,South,180,0.0,0.0,100,0.00,,---,0.25,0.00,VWS V14.01,2013-07-21 03:50:00,
2013-07-20 23:55:00,68.0,68.0,29.09,South,180,0.0,0.0,100,0.00,,---,0.25,0.00,VWS V14.01,2013-07-21 03:55:00,